Time;durP1;ratioP1;P1;durP2;ratioP2;P2;SDS_P1;SDS_P2;PMS_P1;PMS_P2;Temp;Humidity;BMP_temperature;BMP_pressure;BME280_temperature;BME280_humidity;BME280_pressure;Samples;Min_cycle;Max_cycle;Signal;HPM_P1;HPM_P2
2022/12/15 00:42:54;;;;;;;8.23;5.75;;;;;;;-8.73;100.00;100343.13;10369698;28;20072;-78
2022/12/15 00:47:56;;;;;;;7.40;6.78;;;;;;;-8.63;100.00;100350.16;10371706;28;20474;-78
2022/12/15 01:25:00;;;;;;;5.68;5.22;;;;;;;-8.64;100.00;100365.28;10370414;28;20555;-77
2022/12/15 01:30:02;;;;;;;5.63;4.70;;;;;;;-8.69;100.00;100350.00;10370105;28;20091;-77
2022/12/15 01:35:06;;;;;;;7.50;6.85;;;;;;;-8.68;100.00;100349.16;10371453;28;20076;-77
2022/12/15 01:45:52;;;;;;;6.28;5.70;;;;;;;-8.59;100.00;100349.41;10377195;28;20076;-77
2022/12/15 01:51:06;;;;;;;13.13;6.60;;;;;;;-8.56;100.00;100357.09;10376638;28;20151;-77
2022/12/15 01:56:10;;;;;;;11.02;9.27;;;;;;;-8.39;100.00;100371.88;10376693;28;20140;-77
2022/12/15 02:01:12;;;;;;;11.70;10.23;;;;;;;-8.40;100.00;100380.28;10376183;28;20073;-68
2022/12/15 02:06:16;;;;;;;5.97;5.18;;;;;;;-8.49;100.00;100382.56;10376095;28;20161;-68
2022/12/15 02:12:07;;;;;;;9.30;6.50;;;;;;;-8.63;100.00;100390.63;10373923;28;20102;-69
2022/12/15 02:17:28;;;;;;;7.35;6.57;;;;;;;-8.69;100.00;100398.91;10370246;28;20088;-69
2022/12/15 02:23:01;;;;;;;7.32;6.65;;;;;;;-8.67;100.00;100398.94;10374975;28;20078;-69
2022/12/15 02:28:10;;;;;;;6.65;5.80;;;;;;;-8.79;100.00;100399.47;10375561;28;20090;-69
2022/12/15 02:33:27;;;;;;;6.82;6.30;;;;;;;-8.76;100.00;100404.59;10375450;28;20093;-69
2022/12/15 02:38:36;;;;;;;6.35;5.70;;;;;;;-8.69;100.00;100411.56;10375357;28;20079;-69
2022/12/15 02:43:39;;;;;;;6.65;5.13;;;;;;;-8.72;100.00;100405.56;10371904;28;20082;-69
2022/12/15 02:48:59;;;;;;;6.50;6.00;;;;;;;-8.67;100.00;100401.47;10373766;28;20138;-69
2022/12/15 02:54:35;;;;;;;14.00;8.07;;;;;;;-8.51;100.00;100414.56;10374537;28;20149;-77
2022/12/15 02:59:45;;;;;;;5.45;5.05;;;;;;;-8.59;100.00;100409.31;10374489;28;20075;-77
2022/12/15 03:04:49;;;;;;;6.75;6.13;;;;;;;-8.60;100.00;100410.97;10374481;28;20118;-77
2022/12/15 03:09:52;;;;;;;7.57;6.25;;;;;;;-8.69;100.00;100410.72;10371877;28;20102;-77
2022/12/15 03:14:53;;;;;;;8.27;7.53;;;;;;;-8.74;100.00;100417.28;10373965;28;20084;-77
2022/12/15 03:19:58;;;;;;;9.40;6.20;;;;;;;-8.70;100.00;100414.03;10373890;28;20110;-77
2022/12/15 03:25:00;;;;;;;5.70;5.20;;;;;;;-8.69;100.00;100426.75;10373557;28;20085;-76
2022/12/15 03:30:01;;;;;;;7.57;6.85;;;;;;;-8.47;100.00;100429.00;10373334;28;20506;-76
2022/12/15 03:35:06;;;;;;;7.75;4.63;;;;;;;-8.40;100.00;100426.72;10373014;28;20420;-76
2022/12/15 03:40:10;;;;;;;7.95;6.68;;;;;;;-8.38;100.00;100436.03;10370897;28;20467;-76
2022/12/15 03:45:12;;;;;;;8.25;7.03;;;;;;;-8.38;100.00;100436.88;10372882;28;20082;-77
2022/12/15 03:50:19;;;;;;;6.90;6.25;;;;;;;-8.36;100.00;100432.72;10372202;28;20096;-75
2022/12/15 03:55:23;;;;;;;7.85;6.68;;;;;;;-8.32;100.00;100441.28;10372110;28;20173;-75
2022/12/15 04:00:25;;;;;;;8.82;7.03;;;;;;;-8.37;100.00;100438.59;10372258;28;20075;-75
2022/12/15 04:05:32;;;;;;;5.38;4.97;;;;;;;-8.39;100.00;100437.69;10372585;28;20208;-78
2022/12/15 04:10:35;;;;;;;9.00;6.93;;;;;;;-8.46;100.00;100436.66;10369250;28;20095;-76
2022/12/15 04:15:39;;;;;;;5.63;4.93;;;;;;;-8.47;100.00;100429.00;10372176;28;20322;-76
2022/12/15 04:20:42;;;;;;;8.13;6.80;;;;;;;-8.53;100.00;100422.97;10372139;28;20080;-76
2022/12/15 05:35:09;;;;;;;6.20;5.70;;;;;;;-8.27;100.00;100476.03;10377340;28;20074;-76
2022/12/15 05:40:13;;;;;;;6.50;5.90;;;;;;;-8.31;100.00;100481.78;10376358;28;20069;-77
2022/12/15 05:45:15;;;;;;;25.60;6.47;;;;;;;-8.24;100.00;100484.53;10377913;28;20081;-76
2022/12/15 05:50:19;;;;;;;9.45;7.78;;;;;;;-8.31;100.00;100489.41;10376873;28;20103;-77
2022/12/15 05:55:22;;;;;;;10.82;5.95;;;;;;;-8.27;100.00;100481.09;10377199;28;20084;-76
2022/12/15 06:00:25;;;;;;;10.65;6.40;;;;;;;-8.32;100.00;100492.75;10376899;28;20080;-77
2022/12/15 06:05:26;;;;;;;5.32;5.00;;;;;;;-8.16;100.00;100498.25;10376316;28;20167;-77
2022/12/15 06:10:29;;;;;;;9.27;6.97;;;;;;;-8.21;100.00;100484.63;10374371;28;20096;-76
2022/12/15 06:15:31;;;;;;;8.63;7.13;;;;;;;-8.29;100.00;100487.78;10376421;28;20137;-77
2022/12/15 06:20:33;;;;;;;6.53;6.03;;;;;;;-8.41;100.00;100492.47;10376142;28;20076;-76
2022/12/15 06:25:36;;;;;;;11.85;7.53;;;;;;;-8.47;100.00;100492.28;10374189;28;20485;-76
2022/12/15 06:30:39;;;;;;;15.65;6.88;;;;;;;-8.59;100.00;100491.13;10374924;28;20520;-77
2022/12/15 06:35:41;;;;;;;11.60;6.20;;;;;;;-8.65;100.00;100498.56;10375731;28;20566;-77
2022/12/15 06:40:44;;;;;;;8.07;6.90;;;;;;;-8.80;100.00;100512.44;10372335;28;20430;-76
2022/12/15 06:45:49;;;;;;;7.05;6.45;;;;;;;-8.48;100.00;100519.28;10378040;28;20135;-77
2022/12/15 06:50:51;;;;;;;7.30;5.80;;;;;;;-8.32;100.00;100507.09;10375749;28;20128;-77
2022/12/15 06:56:01;;;;;;;13.10;8.15;;;;;;;-8.16;100.00;100508.38;10375408;28;20086;-77
2022/12/15 07:01:06;;;;;;;9.45;6.25;;;;;;;-8.10;100.00;100508.56;10373222;28;20173;-77
2022/12/15 07:06:12;;;;;;;9.88;8.30;;;;;;;-8.21;100.00;100515.00;10372897;28;20181;-78
2022/12/15 07:11:15;;;;;;;8.43;6.75;;;;;;;-8.25;100.00;100521.63;10371684;28;20094;-77
2022/12/15 07:16:17;;;;;;;13.40;7.45;;;;;;;-8.15;100.00;100530.34;10372544;28;20592;-76
2022/12/15 07:21:19;;;;;;;8.80;6.82;;;;;;;-8.19;100.00;100526.03;10371912;28;20083;-76
2022/12/15 07:26:22;;;;;;;9.98;8.65;;;;;;;-8.25;100.00;100525.84;10371628;28;20092;-76
2022/12/15 07:31:24;;;;;;;7.93;6.75;;;;;;;-8.30;100.00;100526.56;10371770;28;20517;-77
2022/12/15 07:36:27;;;;;;;8.70;7.72;;;;;;;-8.28;100.00;100522.41;10371419;28;20121;-77
2022/12/15 07:41:31;;;;;;;8.05;7.00;;;;;;;-8.40;100.00;100534.69;10370564;28;20171;-76
2022/12/15 07:46:32;;;;;;;14.15;8.65;;;;;;;-8.42;100.00;100541.41;10372894;28;20132;-77
2022/12/15 07:51:35;;;;;;;8.73;7.88;;;;;;;-8.38;100.00;100544.88;10372665;28;20621;-77
2022/12/15 07:56:38;;;;;;;7.20;6.25;;;;;;;-8.28;100.00;100545.19;10371881;28;20514;-77
2022/12/15 08:01:41;;;;;;;10.43;7.57;;;;;;;-8.03;100.00;100555.19;10371381;28;20427;-77
2022/12/15 08:06:43;;;;;;;14.85;7.80;;;;;;;-7.93;100.00;100569.88;10371325;28;20104;-77
2022/12/15 08:11:46;;;;;;;10.27;8.05;;;;;;;-7.84;100.00;100561.66;10369424;28;20094;-77
2022/12/15 08:16:48;;;;;;;9.48;8.50;;;;;;;-7.84;100.00;100560.81;10371752;28;20084;-77
2022/12/15 08:21:50;;;;;;;;;;;;;;;-7.77;100.00;100560.16;10368725;28;20082;-77
2022/12/15 08:26:54;;;;;;;12.23;9.37;;;;;;;-7.71;100.00;100556.91;10372093;28;19955;-77
2022/12/15 08:31:56;;;;;;;20.08;10.55;;;;;;;-7.56;100.00;100567.47;10370318;28;20102;-77
2022/12/15 08:36:58;;;;;;;9.27;8.45;;;;;;;-7.51;100.00;100560.88;10370985;28;20508;-77
2022/12/15 08:42:01;;;;;;;8.77;7.88;;;;;;;-7.48;100.00;100564.31;10368349;28;20356;-77
2022/12/15 08:47:03;;;;;;;8.27;7.57;;;;;;;-7.39;100.00;100572.19;10369182;28;20132;-76
2022/12/15 08:52:04;;;;;;;21.20;10.52;;;;;;;-7.27;100.00;100569.97;10348496;28;20090;-77
2022/12/15 08:57:07;;;;;;;12.38;8.93;;;;;;;-7.03;100.00;100584.09;10380567;28;20078;-77
2022/12/15 09:02:12;;;;;;;11.30;9.70;;;;;;;-6.82;100.00;100593.06;10379696;28;20128;-77
2022/12/15 09:07:14;;;;;;;11.55;9.88;;;;;;;-6.67;100.00;100599.34;10379382;28;20103;-77
2022/12/15 09:12:20;;;;;;;22.48;10.77;;;;;;;-6.48;100.00;100611.69;10377103;28;20505;-77
2022/12/15 09:17:22;;;;;;;13.18;10.45;;;;;;;-6.30;100.00;100607.84;10379739;28;20110;-77
2022/12/15 09:22:23;;;;;;;14.57;11.38;;;;;;;-6.11;100.00;100614.22;10383801;28;20590;-75
2022/12/15 09:27:27;;;;;;;14.48;13.05;;;;;;;-5.98;100.00;100625.50;10386758;28;20080;-76
2022/12/15 09:32:29;;;;;;;17.25;13.05;;;;;;;-5.81;100.00;100632.63;10380525;28;20095;-76
2022/12/15 09:37:31;;;;;;;14.00;11.98;;;;;;;-5.65;100.00;100628.69;10380962;28;20079;-77
2022/12/15 09:42:35;;;;;;;12.93;11.18;;;;;;;-5.43;100.00;100640.16;10381502;28;20505;-77
2022/12/15 09:47:49;;;;;;;19.58;12.95;;;;;;;-5.22;100.00;100643.13;10379233;28;20529;-74
2022/12/15 09:52:55;;;;;;;13.73;12.30;;;;;;;-4.50;100.00;100660.53;10378545;28;20081;-76
2022/12/15 09:58:06;;;;;;;14.85;13.27;;;;;;;-3.38;100.00;100651.06;10377686;28;20082;-76
2022/12/15 10:03:37;;;;;;;25.75;17.73;;;;;;;-2.20;100.00;100646.22;10380578;28;20129;-75
2022/12/15 10:08:43;;;;;;;21.98;15.38;;;;;;;-1.66;100.00;100650.81;10379770;28;20117;-75
2022/12/15 10:13:56;;;;;;;26.35;14.73;;;;;;;-0.92;97.36;100654.50;10382300;28;20113;-76
2022/12/15 10:19:08;;;;;;;43.72;15.00;;;;;;;-0.11;98.01;100651.13;10381605;28;20066;-75
2022/12/15 10:24:16;;;;;;;;;;;;;;;0.21;93.75;100642.53;10382497;28;20064;-77
2022/12/15 10:29:39;;;;;;;14.10;11.98;;;;;;;-0.47;93.08;100656.28;10374048;28;19954;-76
2022/12/15 10:34:42;;;;;;;26.65;14.52;;;;;;;-0.14;88.86;100663.09;10373961;28;20155;-77
2022/12/15 10:39:47;;;;;;;24.17;14.52;;;;;;;-0.07;90.69;100660.53;10374350;28;20123;-76
2022/12/15 10:44:53;;;;;;;18.77;13.77;;;;;;;1.58;90.41;100657.22;10376121;28;20057;-77
2022/12/15 10:50:17;;;;;;;24.75;15.63;;;;;;;0.26;84.97;100656.19;10375362;28;20536;-77
2022/12/15 10:55:36;;;;;;;27.80;16.63;;;;;;;0.04;89.14;100660.50;10375182;28;20096;-75
2022/12/15 11:00:40;;;;;;;23.83;16.45;;;;;;;0.57;90.68;100650.09;10375018;28;20132;-77
2022/12/15 11:05:52;;;;;;;26.08;17.45;;;;;;;-0.10;87.58;100665.66;10375802;28;20092;-75
2022/12/15 11:16:19;;;;;;;24.80;16.87;;;;;;;-0.83;91.57;100657.09;10375301;28;20403;-78
2022/12/15 11:21:27;;;;;;;30.17;18.33;;;;;;;-1.23;93.95;100647.56;10375502;28;20583;-76
2022/12/15 11:26:47;;;;;;;25.75;16.35;;;;;;;-1.77;96.46;100639.69;10375950;28;20061;-78
2022/12/15 11:31:53;;;;;;;29.83;18.45;;;;;;;-1.97;100.00;100646.41;10375095;28;20054;-76
2022/12/15 11:37:27;;;;;;;28.55;20.10;;;;;;;-1.91;100.00;100640.47;10374973;28;20109;-77
2022/12/15 11:42:49;;;;;;;33.30;18.23;;;;;;;-1.95;100.00;100651.53;10374371;28;20071;-75
2022/12/15 11:48:00;;;;;;;25.88;17.40;;;;;;;-1.89;99.43;100651.53;10375176;28;20138;-74
2022/12/15 11:53:53;;;;;;;24.00;15.68;;;;;;;-1.66;100.00;100643.16;10374928;28;20080;-77
2022/12/15 11:59:15;;;;;;;23.52;15.20;;;;;;;-1.47;100.00;100638.13;10373894;28;20062;-76
2022/12/15 12:04:26;;;;;;;20.73;14.80;;;;;;;-1.39;100.00;100618.53;10372508;28;20093;-76
2022/12/15 12:09:33;;;;;;;20.15;13.82;;;;;;;-1.38;97.62;100632.16;10372244;28;20587;-76
2022/12/15 12:14:56;;;;;;;19.15;14.38;;;;;;;-1.15;100.00;100624.56;10369581;28;20501;-76
2022/12/15 12:20:03;;;;;;;;;;;;;;;-1.13;98.18;100617.72;10371469;28;20537;-78
2022/12/15 12:25:17;;;;;;;16.02;13.05;;;;;;;-0.95;96.30;100613.50;10372688;28;19942;-77
2022/12/15 12:30:23;;;;;;;24.40;14.23;;;;;;;-0.73;98.34;100601.56;10360714;28;20088;-77
2022/12/15 12:35:38;;;;;;;18.23;12.88;;;;;;;-0.70;98.71;100610.97;10367441;28;20536;-78
2022/12/15 12:41:01;;;;;;;19.10;13.85;;;;;;;-0.73;98.35;100610.97;10369288;28;20071;-78
2022/12/15 12:46:16;;;;;;;25.50;16.15;;;;;;;-0.45;99.22;100616.13;10372751;28;20132;-78
2022/12/15 12:51:29;;;;;;;19.88;13.70;;;;;;;-0.04;98.05;100612.63;10373277;28;20067;-79
2022/12/15 12:56:39;;;;;;;15.00;12.60;;;;;;;1.42;91.37;100599.91;10373162;28;20115;-76
2022/12/15 13:01:41;;;;;;;27.60;15.50;;;;;;;3.15;88.65;100594.47;10372285;28;20069;-78
2022/12/15 13:07:02;;;;;;;20.75;14.40;;;;;;;4.08;76.51;100582.50;10370580;28;20152;-78
2022/12/15 13:12:25;;;;;;;17.60;13.60;;;;;;;3.24;83.29;100586.56;10368182;28;20050;-79
2022/12/15 13:17:37;;;;;;;23.17;16.38;;;;;;;3.47;85.57;100585.34;10370423;28;20472;-77
2022/12/15 13:22:39;;;;;;;26.80;16.90;;;;;;;3.81;82.47;100564.09;10370491;28;20053;-76
2022/12/15 13:27:42;;;;;;;25.45;15.90;;;;;;;4.61;85.11;100559.91;10370401;28;20152;-77
2022/12/15 13:32:51;;;;;;;26.50;16.67;;;;;;;5.08;81.53;100557.13;10372574;28;20046;-76
2022/12/15 13:37:57;;;;;;;22.85;16.23;;;;;;;4.84;76.81;100555.97;10376161;28;20054;-77
2022/12/15 13:43:08;;;;;;;27.10;17.75;;;;;;;4.46;79.54;100555.94;10374749;28;20062;-76
2022/12/15 13:48:26;;;;;;;22.83;14.77;;;;;;;2.25;81.53;100551.00;10376887;28;20568;-76
2022/12/15 13:53:36;;;;;;;29.70;17.48;;;;;;;1.92;84.84;100553.13;10376907;28;20108;-75
2022/12/15 13:58:44;;;;;;;22.85;15.95;;;;;;;1.41;86.97;100551.91;10378202;28;20070;-77
2022/12/15 14:04:06;;;;;;;25.58;16.67;;;;;;;0.67;91.46;100553.28;10376591;28;20058;-75
2022/12/15 14:09:15;;;;;;;27.42;15.73;;;;;;;0.42;94.17;100541.47;10376992;28;20064;-74
2022/12/15 14:14:22;;;;;;;25.60;16.25;;;;;;;0.17;94.95;100539.00;10373227;28;20491;-75
2022/12/15 14:19:26;;;;;;;25.42;15.45;;;;;;;0.07;95.61;100539.91;10376365;28;20085;-74
2022/12/15 14:24:31;;;;;;;24.45;15.90;;;;;;;0.01;96.61;100527.09;10373879;28;20111;-74
2022/12/15 14:29:33;;;;;;;24.08;14.43;;;;;;;0.09;97.26;100525.34;10375118;28;20424;-74
2022/12/15 14:34:41;;;;;;;21.83;13.48;;;;;;;-0.08;97.66;100516.00;10375336;28;20083;-75
2022/12/15 14:39:47;;;;;;;21.67;14.75;;;;;;;-0.34;99.02;100522.03;10373852;28;20073;-74
2022/12/15 14:44:51;;;;;;;22.02;14.55;;;;;;;-0.52;99.75;100518.69;10373743;28;20062;-74
2022/12/15 14:49:58;;;;;;;20.27;13.20;;;;;;;-0.71;100.00;100511.88;10374469;28;20062;-74
2022/12/15 14:55:03;;;;;;;29.73;17.63;;;;;;;-0.87;100.00;100514.44;10374195;28;20084;-73
2022/12/15 15:00:26;;;;;;;19.70;14.23;;;;;;;-1.25;100.00;100500.78;10373636;28;20538;-74
2022/12/15 15:05:33;;;;;;;24.73;12.90;;;;;;;-1.85;100.00;100504.88;10373993;28;20150;-73
2022/12/15 15:10:35;;;;;;;22.90;11.35;;;;;;;-1.98;100.00;100498.88;10371340;28;20114;-73
2022/12/15 15:15:36;;;;;;;18.00;12.70;;;;;;;-2.26;100.00;100503.03;10373607;28;20083;-73
2022/12/15 15:20:49;;;;;;;13.00;10.85;;;;;;;-2.56;100.00;100502.00;10375096;28;20076;-73
2022/12/15 15:25:53;;;;;;;15.68;10.30;;;;;;;-2.92;100.00;100497.50;10375973;28;20082;-73
2022/12/15 15:31:03;;;;;;;16.45;11.65;;;;;;;-3.19;100.00;100493.03;10375160;28;20076;-73
2022/12/15 15:36:12;;;;;;;13.77;9.75;;;;;;;-3.41;100.00;100497.91;10374798;28;20084;-73
2022/12/15 15:41:18;;;;;;;20.17;13.18;;;;;;;-3.52;100.00;100505.47;10372030;28;20518;-73
2022/12/15 15:46:25;;;;;;;17.98;11.35;;;;;;;-3.47;100.00;100506.38;10374093;28;20070;-73
2022/12/15 15:51:30;;;;;;;20.20;12.70;;;;;;;-3.65;100.00;100510.44;10374313;28;20154;-73
2022/12/15 15:56:34;;;;;;;32.22;11.50;;;;;;;-3.66;100.00;100506.16;10373974;28;20092;-74
2022/12/15 16:01:35;;;;;;;27.23;11.80;;;;;;;-3.30;100.00;100510.78;10374410;28;20073;-73
2022/12/15 16:06:40;;;;;;;13.07;10.73;;;;;;;-3.17;100.00;100510.06;10373692;28;20116;-74
2022/12/15 16:11:43;;;;;;;31.90;17.13;;;;;;;-3.08;100.00;100500.75;10370935;28;20139;-73
2022/12/15 16:16:45;;;;;;;19.13;13.68;;;;;;;-3.02;100.00;100508.47;10373357;28;20079;-73
2022/12/15 16:21:49;;;;;;;20.00;11.27;;;;;;;-3.17;100.00;100512.63;10372640;28;20072;-73
2022/12/15 16:26:52;;;;;;;21.55;12.60;;;;;;;-3.30;100.00;100514.19;10372909;28;20522;-73
2022/12/15 16:31:54;;;;;;;19.15;12.35;;;;;;;-3.49;100.00;100511.44;10371190;28;20068;-73
2022/12/15 16:36:59;;;;;;;20.38;13.02;;;;;;;-3.41;100.00;100509.00;10369774;28;20078;-73
2022/12/15 16:42:02;;;;;;;28.27;18.77;;;;;;;-3.46;100.00;100520.00;10366796;28;20509;-73
2022/12/15 16:47:03;;;;;;;14.93;10.95;;;;;;;-3.56;100.00;100530.06;10368965;28;20415;-73
2022/12/15 16:52:17;;;;;;;15.48;12.57;;;;;;;-3.55;100.00;100528.41;10369295;28;20092;-74
2022/12/15 16:57:19;;;;;;;25.35;15.65;;;;;;;-3.86;100.00;100525.50;10369727;28;20070;-74
2022/12/15 17:02:26;;;;;;;19.25;14.30;;;;;;;-3.89;100.00;100541.63;10370592;28;20070;-74
2022/12/15 17:07:29;;;;;;;19.02;11.85;;;;;;;-3.98;100.00;100537.25;10374439;28;20103;-74
2022/12/15 17:12:32;;;;;;;16.13;11.48;;;;;;;-4.20;100.00;100544.63;10376457;28;20537;-74
2022/12/15 17:17:35;;;;;;;18.85;13.43;;;;;;;-4.18;100.00;100550.59;10378479;28;20116;-73
2022/12/15 17:22:38;;;;;;;15.80;12.23;;;;;;;-4.46;100.00;100549.31;10378676;28;20119;-73
2022/12/15 17:27:40;;;;;;;17.02;12.38;;;;;;;-4.65;100.00;100549.91;10378253;28;20073;-73
2022/12/15 17:32:43;;;;;;;13.60;11.57;;;;;;;-4.66;100.00;100557.53;10378178;28;20084;-74
2022/12/15 17:37:46;;;;;;;;;;;;;;;-4.63;100.00;100572.03;10378501;28;20119;-73
2022/12/15 17:42:49;;;;;;;17.25;9.60;;;;;;;-4.71;100.00;100585.47;10375369;28;19950;-75
2022/12/15 17:47:51;;;;;;;13.80;11.93;;;;;;;-4.46;100.00;100595.19;10377334;28;20465;-75
2022/12/15 17:52:55;;;;;;;28.73;14.05;;;;;;;-4.29;100.00;100603.09;10377391;28;20180;-75
2022/12/15 17:57:58;;;;;;;35.63;13.18;;;;;;;-3.94;100.00;100592.53;10378092;28;20121;-75
2022/12/15 18:03:00;;;;;;;10.00;7.47;;;;;;;-3.90;100.00;100594.28;10378717;28;20107;-75
2022/12/15 18:08:15;;;;;;;20.38;13.77;;;;;;;-3.67;100.00;100603.94;10377799;28;20066;-75
2022/12/15 18:13:22;;;;;;;16.30;12.63;;;;;;;-3.38;100.00;100600.88;10376023;28;20131;-73
2022/12/15 18:18:25;;;;;;;16.52;14.18;;;;;;;-3.36;100.00;100600.88;10375930;28;20072;-76
2022/12/15 18:23:30;;;;;;;17.98;12.23;;;;;;;-3.60;100.00;100604.88;10376144;28;20119;-76
2022/12/15 18:28:35;;;;;;;16.73;12.40;;;;;;;-3.75;100.00;100596.22;10375461;28;20067;-75
2022/12/15 18:33:36;;;;;;;14.70;13.15;;;;;;;-3.86;100.00;100599.44;10375038;28;20185;-74
2022/12/15 18:38:39;;;;;;;17.08;13.55;;;;;;;-4.08;100.00;100606.81;10374713;28;20598;-75
2022/12/15 18:43:43;;;;;;;20.35;14.68;;;;;;;-4.12;100.00;100603.34;10372126;28;20485;-74
2022/12/15 18:48:45;;;;;;;17.30;11.50;;;;;;;-4.21;100.00;100626.16;10375410;28;20127;-75
2022/12/15 18:53:49;;;;;;;16.10;11.95;;;;;;;-4.28;100.00;100615.88;10374315;28;20210;-73
2022/12/15 18:58:50;;;;;;;13.90;10.43;;;;;;;-4.34;100.00;100622.56;10374226;28;20471;-75
2022/12/15 19:03:52;;;;;;;21.45;12.52;;;;;;;-4.38;100.00;100626.72;10367793;28;20560;-75
2022/12/15 19:08:55;;;;;;;14.77;10.88;;;;;;;-4.44;100.00;100622.44;10381724;28;20066;-75
2022/12/15 19:13:59;;;;;;;14.32;12.27;;;;;;;-4.34;100.00;100622.56;10371225;28;20215;-76
2022/12/15 19:29:43;;;;;;;16.05;9.02;;;;;;;-4.26;100.00;100613.34;10373092;28;20066;-77
2022/12/15 19:34:45;;;;;;;12.52;10.65;;;;;;;-4.35;100.00;100624.25;10372992;28;20102;-77
2022/12/15 19:39:49;;;;;;;15.23;11.80;;;;;;;-4.41;100.00;100619.91;10373176;28;20077;-77
2022/12/15 19:44:51;;;;;;;13.23;10.82;;;;;;;-4.48;100.00;100615.53;10372289;28;20123;-76
2022/12/15 19:49:52;;;;;;;12.20;10.25;;;;;;;-4.71;100.00;100610.09;10373297;28;20070;-76
2022/12/15 19:54:55;;;;;;;12.20;9.73;;;;;;;-4.56;100.00;100604.38;10372656;28;20092;-75
2022/12/15 19:59:58;;;;;;;14.98;10.77;;;;;;;-4.76;100.00;100591.34;10372232;28;20494;-76
2022/12/15 20:05:01;;;;;;;15.93;10.25;;;;;;;-5.03;100.00;100593.44;10368542;28;20092;-76
2022/12/15 20:10:06;;;;;;;;;;;;;;;-5.02;100.00;100596.81;10370308;28;20071;-76
2022/12/15 20:15:16;;;;;;;14.45;8.25;;;;;;;-5.30;100.00;100599.72;10371573;28;20445;-74
2022/12/15 20:20:19;;;;;;;14.35;10.77;;;;;;;-5.48;100.00;100597.69;10372266;28;20166;-75
2022/12/15 20:25:25;;;;;;;14.00;9.52;;;;;;;-5.66;100.00;100608.31;10372513;28;20460;-74
2022/12/15 20:30:31;;;;;;;11.40;9.05;;;;;;;-5.89;100.00;100603.63;10372997;28;20073;-76
2022/12/15 20:35:36;;;;;;;15.05;10.02;;;;;;;-6.04;100.00;100599.97;10373092;28;20507;-76
2022/12/15 20:40:40;;;;;;;19.55;9.93;;;;;;;-6.21;100.00;100591.94;10369839;28;20169;-76
2022/12/15 20:45:43;;;;;;;13.90;9.02;;;;;;;-6.26;100.00;100596.91;10372709;28;20129;-76
2022/12/15 20:50:48;;;;;;;14.82;10.77;;;;;;;-6.10;100.00;100605.75;10371804;28;20074;-76
2022/12/15 20:55:53;;;;;;;15.15;10.13;;;;;;;-6.28;100.00;100606.22;10372443;28;20088;-75
2022/12/15 21:00:56;;;;;;;19.67;11.60;;;;;;;-6.39;100.00;100597.47;10371721;28;20073;-76
2022/12/15 21:05:59;;;;;;;20.42;10.52;;;;;;;-6.56;100.00;100605.56;10371585;28;20584;-76
2022/12/15 21:11:14;;;;;;;17.67;9.93;;;;;;;-6.64;100.00;100604.50;10370092;28;20074;-76
2022/12/15 21:16:18;;;;;;;13.80;10.48;;;;;;;-6.77;100.00;100601.66;10370950;28;20100;-77
2022/12/15 21:21:27;;;;;;;16.48;9.73;;;;;;;-6.72;100.00;100595.03;10371403;28;20181;-77
2022/12/15 21:26:31;;;;;;;16.50;12.15;;;;;;;-6.48;100.00;100588.81;10371097;28;20443;-76
2022/12/15 21:31:34;;;;;;;17.23;9.50;;;;;;;-6.64;100.00;100591.81;10371101;28;20077;-76
2022/12/15 21:36:38;;;;;;;11.65;9.73;;;;;;;-6.79;100.00;100585.53;10371094;28;20220;-75
2022/12/15 21:41:43;;;;;;;16.42;10.77;;;;;;;-6.77;100.00;100600.81;10369465;28;20079;-77
2022/12/15 21:46:45;;;;;;;17.10;10.88;;;;;;;-6.79;100.00;100593.16;10371285;28;20173;-77
2022/12/15 21:51:53;;;;;;;30.02;15.10;;;;;;;-6.61;100.00;100596.94;10371576;28;20066;-76
2022/12/15 21:56:56;;;;;;;25.48;12.88;;;;;;;-6.60;100.00;100596.16;10378093;28;20094;-76
2022/12/15 22:02:00;;;;;;;10.10;9.10;;;;;;;-6.47;100.00;100602.34;10378043;28;20085;-77
2022/12/15 22:07:02;;;;;;;15.30;10.68;;;;;;;-6.25;100.00;100606.28;10377993;28;20502;-77
2022/12/15 22:12:08;;;;;;;10.15;8.82;;;;;;;-6.29;100.00;100611.25;10376272;28;20067;-79
2022/12/15 22:17:17;;;;;;;28.73;10.27;;;;;;;-6.47;100.00;100600.69;10377363;28;20093;-79
2022/12/15 22:22:18;;;;;;;16.20;11.20;;;;;;;-6.58;100.00;100614.81;10377512;28;20593;-80
2022/12/15 22:27:22;;;;;;;12.77;9.23;;;;;;;-6.68;100.00;100613.72;10377580;28;20468;-78
2022/12/15 22:32:24;;;;;;;11.20;7.90;;;;;;;-6.65;100.00;100618.00;10377277;28;20073;-78
2022/12/15 22:37:26;;;;;;;19.95;10.10;;;;;;;-6.62;100.00;100618.97;10377309;28;20179;-79
2022/12/15 22:42:29;;;;;;;13.55;10.07;;;;;;;-6.49;100.00;100622.66;10375818;28;20081;-79
2022/12/15 22:47:36;;;;;;;14.68;11.35;;;;;;;-6.23;100.00;100630.03;10377541;28;20066;-76
2022/12/15 22:52:37;;;;;;;18.92;13.70;;;;;;;-5.73;100.00;100635.31;10377357;28;20100;-76
2022/12/15 22:57:42;;;;;;;20.80;15.10;;;;;;;-5.39;100.00;100630.06;10377638;28;20087;-76
2022/12/15 23:02:46;;;;;;;17.50;13.68;;;;;;;-5.20;100.00;100627.03;10376319;28;20136;-76
2022/12/15 23:07:50;;;;;;;24.40;16.38;;;;;;;-4.98;100.00;100640.19;10376468;28;20405;-76
2022/12/15 23:12:53;;;;;;;18.52;12.95;;;;;;;-4.81;100.00;100639.63;10376293;28;20075;-76
2022/12/15 23:17:55;;;;;;;24.08;11.77;;;;;;;-4.66;100.00;100644.97;10376589;28;20518;-77
2022/12/15 23:22:57;;;;;;;18.92;13.02;;;;;;;-4.54;100.00;100644.34;10377016;28;20069;-77
2022/12/15 23:28:04;;;;;;;18.90;15.63;;;;;;;-4.42;100.00;100642.81;10376518;28;20126;-76
2022/12/15 23:33:05;;;;;;;23.63;14.23;;;;;;;-4.34;100.00;100641.28;10375797;28;20074;-77
2022/12/15 23:38:07;;;;;;;24.33;14.73;;;;;;;-4.28;100.00;100650.66;10375971;28;20129;-76
2022/12/15 23:43:11;;;;;;;19.42;12.88;;;;;;;-4.18;100.00;100651.69;10374202;28;20763;-77
2022/12/15 23:48:14;;;;;;;19.40;13.55;;;;;;;-4.11;100.00;100652.66;10376072;28;20077;-76
2022/12/15 23:53:16;;;;;;;20.88;14.98;;;;;;;-4.03;100.00;100653.63;10375159;28;20116;-67
2022/12/15 23:58:19;;;;;;;18.50;12.48;;;;;;;-3.93;100.00;100650.34;10373452;28;20069;-68
